createdAt,value
2018-05-06T00:00:03.321Z,13.97
2018-05-06T00:00:37.071Z,14.18
2018-05-06T00:01:10.555Z,13.67
2018-05-06T00:01:44.313Z,14.50
2018-05-06T00:02:17.778Z,16.60
2018-05-06T00:02:51.520Z,19.50
2018-05-06T00:03:25.279Z,20.40
2018-05-06T00:03:58.751Z,20.00
2018-05-06T00:04:32.495Z,20.40
2018-05-06T00:05:06.506Z,22.03
2018-05-06T00:05:41.140Z,21.30
2018-05-06T00:06:14.631Z,21.80
2018-05-06T00:06:48.542Z,21.17
2018-05-06T00:07:22.646Z,17.70
2018-05-06T00:07:56.387Z,19.05
2018-05-06T00:08:29.895Z,17.97
2018-05-06T00:09:03.550Z,16.05
2018-05-06T00:09:38.056Z,17.50
2018-05-06T00:10:12.602Z,17.08
2018-05-06T00:10:46.336Z,16.12
2018-05-06T00:11:20.091Z,15.07
2018-05-06T00:11:53.845Z,15.75
2018-05-06T00:12:27.574Z,15.77
2018-05-06T00:13:01.065Z,14.10
2018-05-06T00:13:34.578Z,12.17
2018-05-06T00:14:08.824Z,12.93
2018-05-06T00:14:42.288Z,11.47
2018-05-06T00:15:16.898Z,10.98
2018-05-06T00:15:50.480Z,10.60
2018-05-06T00:16:24.173Z,11.43
2018-05-06T00:16:57.642Z,11.27
2018-05-06T00:17:31.384Z,10.57
2018-05-06T00:18:04.867Z,11.87
2018-05-06T00:18:38.136Z,11.47
2018-05-06T00:19:12.440Z,11.82
2018-05-06T00:19:47.007Z,13.15
2018-05-06T00:20:21.008Z,13.50
2018-05-06T00:20:56.199Z,14.13
2018-05-06T00:21:29.655Z,16.20
2018-05-06T00:22:04.150Z,13.40
2018-05-06T00:22:37.894Z,12.00
2018-05-06T00:23:11.646Z,12.02
2018-05-06T00:23:45.160Z,11.70
2018-05-06T00:24:18.616Z,13.37
2018-05-06T00:24:53.103Z,15.05
2018-05-06T00:25:26.583Z,14.10
2018-05-06T00:26:00.430Z,15.05
2018-05-06T00:26:34.152Z,15.18
2018-05-06T00:27:08.374Z,14.40
2018-05-06T00:27:41.859Z,14.50
2018-05-06T00:28:15.594Z,13.05
2018-05-06T00:28:49.106Z,13.63
2018-05-06T00:29:23.646Z,13.75
2018-05-06T00:29:57.386Z,15.07
2018-05-06T00:30:31.150Z,15.30
2018-05-06T00:31:04.312Z,15.53
2018-05-06T00:31:38.056Z,15.25
2018-05-06T00:32:11.811Z,15.90
2018-05-06T00:32:44.967Z,14.83
2018-05-06T00:33:18.446Z,14.67
2018-05-06T00:33:52.773Z,13.93
2018-05-06T00:34:26.242Z,15.67
2018-05-06T00:34:59.720Z,13.90
2018-05-06T00:35:33.963Z,14.53
2018-05-06T00:36:07.714Z,14.15
2018-05-06T00:36:41.466Z,15.85
2018-05-06T00:37:15.207Z,15.57
2018-05-06T00:37:49.726Z,13.65
2018-05-06T00:38:23.470Z,14.95
2018-05-06T00:38:57.240Z,14.70
2018-05-06T00:39:30.992Z,14.02
2018-05-06T00:40:04.055Z,14.90
2018-05-06T00:40:38.274Z,14.10
2018-05-06T00:41:11.489Z,13.20
2018-05-06T00:41:44.751Z,14.10
2018-05-06T00:42:17.981Z,14.97
2018-05-06T00:42:52.031Z,14.03
2018-05-06T00:43:26.523Z,14.95
2018-05-06T00:44:01.068Z,13.30
2018-05-06T00:44:34.570Z,13.70
2018-05-06T00:45:08.025Z,14.70
2018-05-06T00:45:41.787Z,14.63
2018-05-06T00:46:16.305Z,14.85
2018-05-06T00:46:50.812Z,14.85
2018-05-06T00:47:24.540Z,14.27
2018-05-06T00:47:58.280Z,14.75
2018-05-06T00:48:32.009Z,14.18
2018-05-06T00:49:05.799Z,14.32
2018-05-06T00:49:40.290Z,15.13
2018-05-06T00:50:14.792Z,15.45
2018-05-06T00:50:48.536Z,15.85
2018-05-06T00:51:22.273Z,15.70
2018-05-06T00:51:56.029Z,16.27
2018-05-06T00:52:30.263Z,15.57
2018-05-06T00:53:03.660Z,15.50
2018-05-06T00:53:38.153Z,16.45
2018-05-06T00:54:23.146Z,15.63
2018-05-06T00:54:56.883Z,15.73
2018-05-06T00:55:30.623Z,17.27
2018-05-06T00:56:04.389Z,16.10
2018-05-06T00:56:38.106Z,16.20
2018-05-06T00:57:11.851Z,16.40
2018-05-06T00:57:45.584Z,15.32
2018-05-06T00:58:19.048Z,14.90
2018-05-06T00:58:53.552Z,15.00
2018-05-06T00:59:28.084Z,14.25
2018-05-06T01:00:01.832Z,14.48
2018-05-06T01:00:35.636Z,14.10
2018-05-06T01:01:09.851Z,14.63
2018-05-06T01:01:44.350Z,12.98
2018-05-06T01:02:18.089Z,13.62
2018-05-06T01:02:51.828Z,14.18
2018-05-06T01:03:25.572Z,14.23
2018-05-06T01:03:59.325Z,12.75
2018-05-06T01:04:33.856Z,13.30
2018-05-06T01:05:07.579Z,12.10
2018-05-06T01:05:41.317Z,12.95
2018-05-06T01:06:15.842Z,11.32
2018-05-06T01:06:49.578Z,11.85
2018-05-06T01:07:23.350Z,10.70
2018-05-06T01:07:57.084Z,10.63
2018-05-06T01:08:30.558Z,11.47
2018-05-06T01:09:03.645Z,10.88
2018-05-06T01:09:37.372Z,12.05
2018-05-06T01:10:11.095Z,10.90
2018-05-06T01:10:44.626Z,10.73
2018-05-06T01:11:19.136Z,11.35
2018-05-06T01:11:53.672Z,10.50
2018-05-06T01:12:27.425Z,11.48
2018-05-06T01:13:01.167Z,10.93
2018-05-06T01:13:34.931Z,10.07
2018-05-06T01:14:09.466Z,11.10
2018-05-06T01:14:42.944Z,10.80
2018-05-06T01:15:16.702Z,10.50
2018-05-06T01:15:50.856Z,11.12
2018-05-06T01:16:24.600Z,11.48
2018-05-06T01:16:58.112Z,11.30
2018-05-06T01:17:31.873Z,11.00
2018-05-06T01:18:06.377Z,11.38
2018-05-06T01:18:40.886Z,11.32
2018-05-06T01:19:15.402Z,11.32
2018-05-06T01:19:50.828Z,11.95
2018-05-06T01:20:25.002Z,11.05
2018-05-06T01:20:59.253Z,10.90
2018-05-06T01:21:32.982Z,10.35
2018-05-06T01:22:06.758Z,11.02
2018-05-06T01:22:40.507Z,10.30
2018-05-06T01:23:15.060Z,11.55
2018-05-06T01:23:48.826Z,11.55
2018-05-06T01:24:23.356Z,10.88
2018-05-06T01:24:57.107Z,11.12
2018-05-06T01:25:31.614Z,11.55
2018-05-06T01:26:05.333Z,10.55
2018-05-06T01:26:39.101Z,11.02
2018-05-06T01:27:13.635Z,11.27
2018-05-06T01:27:47.173Z,11.63
2018-05-06T01:28:21.186Z,10.97
2018-05-06T01:28:54.925Z,11.57
2018-05-06T01:29:28.673Z,10.45
2018-05-06T01:30:03.179Z,11.65
2018-05-06T01:30:36.957Z,10.95
2018-05-06T01:31:10.461Z,11.10
2018-05-06T01:31:44.806Z,11.10
2018-05-06T01:32:18.404Z,11.32
2018-05-06T01:32:52.155Z,11.23
2018-05-06T01:33:26.704Z,11.27
2018-05-06T01:34:00.446Z,10.75
2018-05-06T01:34:34.947Z,11.55
2018-05-06T01:35:08.708Z,11.27
2018-05-06T01:35:42.473Z,11.68
2018-05-06T01:36:16.240Z,12.32
2018-05-06T01:36:50.733Z,10.55
2018-05-06T01:37:24.506Z,10.95
2018-05-06T01:37:58.255Z,10.98
2018-05-06T01:38:32.006Z,11.30
2018-05-06T01:39:05.082Z,10.77
2018-05-06T01:39:38.835Z,12.32
2018-05-06T01:40:12.577Z,12.02
2018-05-06T01:40:47.093Z,11.68
2018-05-06T01:41:21.580Z,12.00
2018-05-06T01:41:55.315Z,12.13
2018-05-06T01:42:29.116Z,11.45
2018-05-06T01:43:02.886Z,11.05
2018-05-06T01:43:36.623Z,12.00
2018-05-06T01:44:10.533Z,11.70
2018-05-06T01:44:44.421Z,10.52
2018-05-06T01:45:18.169Z,10.98
2018-05-06T01:45:51.931Z,11.50
2018-05-06T01:46:26.441Z,11.65
2018-05-06T01:47:00.944Z,11.07
2018-05-06T01:47:35.498Z,11.77
2018-05-06T01:48:09.245Z,11.68
2018-05-06T01:48:43.833Z,11.50
2018-05-06T01:49:17.589Z,10.85
2018-05-06T01:49:51.345Z,11.40
2018-05-06T01:50:25.851Z,10.93
2018-05-06T01:51:00.358Z,11.15
2018-05-06T01:51:34.849Z,11.25
2018-05-06T01:52:09.076Z,11.13
2018-05-06T01:52:42.587Z,10.83
2018-05-06T01:53:16.357Z,11.38
2018-05-06T01:53:50.093Z,11.27
2018-05-06T01:54:23.809Z,9.68
2018-05-06T01:54:57.307Z,10.77
2018-05-06T01:55:30.833Z,10.88
2018-05-06T01:56:04.343Z,10.70
2018-05-06T01:56:38.091Z,11.52
2018-05-06T01:57:11.887Z,11.25
2018-05-06T01:57:45.669Z,12.35
2018-05-06T01:58:20.198Z,11.60
2018-05-06T01:58:54.017Z,11.35
2018-05-06T01:59:27.797Z,11.75
2018-05-06T02:00:01.545Z,11.68
2018-05-06T02:00:36.068Z,11.40
2018-05-06T02:01:10.595Z,11.75
2018-05-06T02:01:44.345Z,11.60
2018-05-06T02:02:18.113Z,12.15
2018-05-06T02:02:51.853Z,10.77
2018-05-06T02:03:26.398Z,10.80
2018-05-06T02:04:01.089Z,11.55
2018-05-06T02:04:34.553Z,11.57
2018-05-06T02:05:08.032Z,12.37
2018-05-06T02:05:42.057Z,11.10
2018-05-06T02:06:15.799Z,12.27
2018-05-06T02:06:49.544Z,10.98
2018-05-06T02:07:23.281Z,11.43
2018-05-06T02:07:57.149Z,12.00
2018-05-06T02:08:31.493Z,11.80
2018-05-06T02:09:05.365Z,12.20
2018-05-06T02:09:39.121Z,12.82
2018-05-06T02:10:12.877Z,11.85
2018-05-06T02:10:46.705Z,11.85
2018-05-06T02:11:20.472Z,12.07
2018-05-06T02:11:53.945Z,11.07
2018-05-06T02:12:27.697Z,11.90
2018-05-06T02:13:01.468Z,12.20
2018-05-06T02:13:35.205Z,11.00
2018-05-06T02:14:08.952Z,11.50
2018-05-06T02:14:42.711Z,12.00
2018-05-06T02:15:18.097Z,11.60
2018-05-06T02:15:51.867Z,11.40
2018-05-06T02:16:25.621Z,11.68
2018-05-06T02:17:00.161Z,11.50
2018-05-06T02:17:33.952Z,11.68
2018-05-06T02:18:07.475Z,12.27
2018-05-06T02:18:41.235Z,12.00
2018-05-06T02:19:14.747Z,11.27
2018-05-06T02:19:48.510Z,11.68
2018-05-06T02:20:22.324Z,11.95
2018-05-06T02:20:56.079Z,11.80
2018-05-06T02:21:29.588Z,11.63
2018-05-06T02:22:03.331Z,12.60
2018-05-06T02:22:37.881Z,12.50
2018-05-06T02:23:11.653Z,11.23
2018-05-06T02:23:45.422Z,12.82
2018-05-06T02:24:18.913Z,12.47
2018-05-06T02:24:53.478Z,11.40
2018-05-06T02:25:26.909Z,12.48
2018-05-06T02:26:00.051Z,11.77
2018-05-06T02:26:33.810Z,12.23
2018-05-06T02:27:07.555Z,11.02
2018-05-06T02:27:41.309Z,11.75
2018-05-06T02:28:15.070Z,11.77
2018-05-06T02:28:48.857Z,11.77
2018-05-06T02:29:23.361Z,12.57
2018-05-06T02:29:57.907Z,11.10
2018-05-06T02:30:31.757Z,11.82
2018-05-06T02:31:05.977Z,12.52
2018-05-06T02:31:39.732Z,12.55
2018-05-06T02:32:13.240Z,12.80
2018-05-06T02:32:47.770Z,12.20
2018-05-06T02:33:21.271Z,12.37
2018-05-06T02:33:55.029Z,12.10
2018-05-06T02:34:29.537Z,12.90
2018-05-06T02:35:03.743Z,12.63
2018-05-06T02:35:38.274Z,12.25
2018-05-06T02:36:12.043Z,12.73
2018-05-06T02:36:46.572Z,12.13
2018-05-06T02:37:20.352Z,12.43
2018-05-06T02:37:54.090Z,12.18
2018-05-06T02:38:27.842Z,13.50
2018-05-06T02:39:01.318Z,12.33
2018-05-06T02:39:35.060Z,12.05
2018-05-06T02:40:08.836Z,12.50
2018-05-06T02:40:43.360Z,12.25
2018-05-06T02:41:17.890Z,12.80
2018-05-06T02:41:51.663Z,12.77
2018-05-06T02:42:25.426Z,13.05
2018-05-06T02:42:59.166Z,12.50
2018-05-06T02:43:33.673Z,12.43
2018-05-06T02:44:07.414Z,11.75
2018-05-06T02:44:41.163Z,11.80
2018-05-06T02:45:14.920Z,12.88
2018-05-06T02:45:48.336Z,11.68
2018-05-06T02:46:22.118Z,12.85
2018-05-06T02:46:55.536Z,11.40
2018-05-06T02:47:29.310Z,10.80
2018-05-06T02:48:03.514Z,12.70
2018-05-06T02:48:38.034Z,12.45
2018-05-06T02:49:12.550Z,11.27
2018-05-06T02:49:46.314Z,12.68
2018-05-06T02:50:20.082Z,11.75
2018-05-06T02:50:53.832Z,11.68
2018-05-06T02:51:27.583Z,11.98
2018-05-06T02:52:01.364Z,11.35
2018-05-06T02:52:35.113Z,12.10
2018-05-06T02:53:08.878Z,11.80
2018-05-06T02:53:43.406Z,10.90
2018-05-06T02:54:17.162Z,11.68
2018-05-06T02:54:50.902Z,10.95
2018-05-06T02:55:24.674Z,11.02
2018-05-06T02:55:58.433Z,10.68
2018-05-06T02:56:32.664Z,9.87
2018-05-06T02:57:07.169Z,10.30
2018-05-06T02:57:41.678Z,10.73
2018-05-06T02:58:16.200Z,10.43
2018-05-06T02:58:49.942Z,11.35
2018-05-06T02:59:23.464Z,10.73
2018-05-06T02:59:57.768Z,10.90
2018-05-06T03:00:31.608Z,10.02
2018-05-06T03:01:05.362Z,11.35
2018-05-06T03:01:38.904Z,10.60
2018-05-06T03:02:12.642Z,10.73
2018-05-06T03:02:46.396Z,11.20
2018-05-06T03:03:20.150Z,10.68
2018-05-06T03:03:53.894Z,10.07
2018-05-06T03:04:27.640Z,10.55
2018-05-06T03:05:01.424Z,10.63
2018-05-06T03:05:34.832Z,11.50
2018-05-06T03:06:08.568Z,10.30
2018-05-06T03:06:41.976Z,10.38
2018-05-06T03:07:15.715Z,11.00
2018-05-06T03:07:49.456Z,10.65
2018-05-06T03:08:23.254Z,11.30
2018-05-06T03:08:57.011Z,11.12
2018-05-06T03:09:30.792Z,10.82
2018-05-06T03:10:04.726Z,9.18
2018-05-06T03:10:38.456Z,11.52
2018-05-06T03:11:12.230Z,11.30
2018-05-06T03:11:45.962Z,10.27
2018-05-06T03:12:19.714Z,10.45
2018-05-06T03:12:53.456Z,11.25
2018-05-06T03:13:27.964Z,10.10
2018-05-06T03:14:01.736Z,11.55
2018-05-06T03:14:35.480Z,9.98
2018-05-06T03:15:09.276Z,10.90
2018-05-06T03:15:43.030Z,9.90
2018-05-06T03:16:17.300Z,10.27
2018-05-06T03:16:51.161Z,10.02
2018-05-06T03:17:24.576Z,10.43
2018-05-06T03:17:58.316Z,10.90
2018-05-06T03:18:32.071Z,11.07
2018-05-06T03:19:05.824Z,10.68
2018-05-06T03:19:39.581Z,10.05
2018-05-06T03:20:13.371Z,10.05
2018-05-06T03:20:47.126Z,10.50
2018-05-06T03:21:20.864Z,10.50
2018-05-06T03:21:54.622Z,10.18
2018-05-06T03:22:28.398Z,9.32
2018-05-06T03:23:02.132Z,10.07
2018-05-06T03:23:36.636Z,10.52
2018-05-06T03:24:11.138Z,9.80
2018-05-06T03:24:44.868Z,8.52
2018-05-06T03:25:18.642Z,9.10
2018-05-06T03:25:53.234Z,8.65
2018-05-06T03:26:27.732Z,8.20
2018-05-06T03:27:01.478Z,8.00
2018-05-06T03:27:35.200Z,8.23
2018-05-06T03:28:08.940Z,8.60
2018-05-06T03:28:42.678Z,6.97
2018-05-06T03:29:16.401Z,7.72
2018-05-06T03:29:50.952Z,8.20
2018-05-06T03:30:25.670Z,7.45
2018-05-06T03:30:59.398Z,6.97
2018-05-06T03:31:33.130Z,7.43
2018-05-06T03:32:06.874Z,7.53
2018-05-06T03:32:40.616Z,7.10
2018-05-06T03:33:14.352Z,7.82
2018-05-06T03:33:48.078Z,7.12
2018-05-06T03:34:22.570Z,7.15
2018-05-06T03:34:56.290Z,7.50
2018-05-06T03:35:30.052Z,7.80
2018-05-06T03:36:03.784Z,8.07
2018-05-06T03:36:37.521Z,6.95
2018-05-06T03:37:11.292Z,7.90
2018-05-06T03:37:45.034Z,7.45
2018-05-06T03:38:19.554Z,7.68
2018-05-06T03:38:53.282Z,7.35
2018-05-06T03:39:27.028Z,7.40
2018-05-06T03:40:00.788Z,7.22
2018-05-06T03:40:34.549Z,6.78
2018-05-06T03:41:08.296Z,6.25
2018-05-06T03:41:42.806Z,7.20
2018-05-06T03:42:17.351Z,7.65
2018-05-06T03:42:51.068Z,7.30
2018-05-06T03:43:24.804Z,6.50
2018-05-06T03:43:57.970Z,6.93
2018-05-06T03:44:31.912Z,6.72
2018-05-06T03:45:05.657Z,6.90
2018-05-06T03:45:40.168Z,6.93
2018-05-06T03:46:14.689Z,6.90
2018-05-06T03:46:48.431Z,7.70
2018-05-06T03:47:22.232Z,6.95
2018-05-06T03:47:55.988Z,6.80
2018-05-06T03:48:29.744Z,6.70
2018-05-06T03:49:04.798Z,7.40
2018-05-06T03:49:38.558Z,6.60
2018-05-06T03:50:12.047Z,7.03
2018-05-06T03:50:46.551Z,7.43
2018-05-06T03:51:21.063Z,7.60
2018-05-06T03:51:55.569Z,6.00
2018-05-06T03:52:30.110Z,7.12
2018-05-06T03:53:03.882Z,6.57
2018-05-06T03:53:38.376Z,7.25
2018-05-06T03:54:12.892Z,7.20
2018-05-06T03:54:47.598Z,7.05
2018-05-06T03:55:21.063Z,6.80
2018-05-06T03:55:59.950Z,7.43
2018-05-06T03:56:54.540Z,6.75
2018-05-06T03:57:39.490Z,7.00
2018-05-06T03:58:24.356Z,6.43
2018-05-06T03:59:09.232Z,7.35
2018-05-06T03:59:54.788Z,6.75
2018-05-06T04:00:39.706Z,7.07
2018-05-06T04:01:12.996Z,6.10
2018-05-06T04:02:13.508Z,6.93
2018-05-06T04:02:47.294Z,6.15
2018-05-06T04:03:21.042Z,6.20
2018-05-06T04:03:55.555Z,6.28
2018-05-06T04:04:30.059Z,6.40
2018-05-06T04:05:03.893Z,6.70
2018-05-06T04:05:37.638Z,6.45
2018-05-06T04:06:12.149Z,6.55
2018-05-06T04:06:47.020Z,5.80
2018-05-06T04:07:20.720Z,6.93
2018-05-06T04:07:54.496Z,6.60
2018-05-06T04:08:27.972Z,5.93
2018-05-06T04:09:01.459Z,5.60
2018-05-06T04:09:34.938Z,5.80
2018-05-06T04:10:08.442Z,5.83
2018-05-06T04:10:41.917Z,5.93
2018-05-06T04:11:15.420Z,5.63
2018-05-06T04:11:49.729Z,5.20
2018-05-06T04:12:22.998Z,5.67
2018-05-06T04:12:56.484Z,6.30
2018-05-06T04:13:30.074Z,6.13
2018-05-06T04:14:04.334Z,6.00
2018-05-06T04:14:38.008Z,5.43
2018-05-06T04:15:11.521Z,5.40
2018-05-06T04:15:45.021Z,6.00
2018-05-06T04:16:18.554Z,5.40
2018-05-06T04:16:51.798Z,5.27
2018-05-06T04:17:26.040Z,6.27
2018-05-06T04:17:59.569Z,5.60
2018-05-06T04:18:33.058Z,5.80
2018-05-06T04:19:06.548Z,5.50
2018-05-06T04:19:40.029Z,5.47
2018-05-06T04:20:13.518Z,5.60
2018-05-06T04:20:47.006Z,5.43
2018-05-06T04:21:20.503Z,4.90
2018-05-06T04:21:54.168Z,5.23
2018-05-06T04:22:27.662Z,6.10
2018-05-06T04:23:01.162Z,5.97
2018-05-06T04:23:35.629Z,5.67
2018-05-06T04:24:09.085Z,5.50
2018-05-06T04:24:42.570Z,5.40
2018-05-06T04:25:16.055Z,5.77
2018-05-06T04:25:49.558Z,5.83
2018-05-06T04:26:23.032Z,5.80
2018-05-06T04:26:56.492Z,5.60
2018-05-06T04:27:30.748Z,6.50
2018-05-06T04:28:04.242Z,6.10
2018-05-06T04:28:37.710Z,6.30
2018-05-06T04:29:11.180Z,6.13
2018-05-06T04:29:44.654Z,7.00
2018-05-06T04:30:17.894Z,6.67
2018-05-06T04:30:51.939Z,6.70
2018-05-06T04:31:25.419Z,6.33
2018-05-06T04:31:58.905Z,5.63
2018-05-06T04:32:32.152Z,6.10
2018-05-06T04:33:06.427Z,7.20
2018-05-06T04:33:39.918Z,5.60
2018-05-06T04:34:13.372Z,5.80
2018-05-06T04:34:46.848Z,5.60
2018-05-06T04:35:20.321Z,6.87
2018-05-06T04:35:53.803Z,6.10
2018-05-06T04:36:27.312Z,6.10
2018-05-06T04:37:00.798Z,6.37
2018-05-06T04:37:34.259Z,6.07
2018-05-06T04:38:07.754Z,6.57
2018-05-06T04:38:41.255Z,6.50
2018-05-06T04:39:14.737Z,6.53
2018-05-06T04:39:48.214Z,6.83
2018-05-06T04:40:21.756Z,7.40
2018-05-06T04:40:55.231Z,7.33
2018-05-06T04:41:28.703Z,6.40
2018-05-06T04:42:02.191Z,6.67
2018-05-06T04:42:35.670Z,6.60
2018-05-06T04:43:09.215Z,6.60
2018-05-06T04:43:42.727Z,6.97
2018-05-06T04:44:16.248Z,5.80
2018-05-06T04:44:50.637Z,6.50
2018-05-06T04:45:24.137Z,6.27
2018-05-06T04:45:57.600Z,5.97
2018-05-06T04:46:31.069Z,6.57
2018-05-06T04:47:04.546Z,6.17
2018-05-06T04:47:38.023Z,6.10
2018-05-06T04:48:11.513Z,6.03
2018-05-06T04:48:44.977Z,5.73
2018-05-06T04:49:18.454Z,5.23
2018-05-06T04:49:52.687Z,5.73
2018-05-06T04:50:26.152Z,5.40
2018-05-06T04:50:59.643Z,5.60
2018-05-06T04:51:33.128Z,5.73
2018-05-06T04:52:06.278Z,5.90
2018-05-06T04:52:40.508Z,5.33
2018-05-06T04:53:14.005Z,5.07
2018-05-06T04:53:47.479Z,5.43
2018-05-06T04:54:20.960Z,5.50
2018-05-06T04:54:54.449Z,4.93
2018-05-06T04:55:27.689Z,5.50
2018-05-06T04:56:01.142Z,5.80
2018-05-06T04:56:34.609Z,5.80
2018-05-06T04:57:08.074Z,6.20
2018-05-06T04:57:41.534Z,6.00
2018-05-06T04:58:15.814Z,5.47
2018-05-06T04:58:49.280Z,5.60
2018-05-06T04:59:22.754Z,5.80
2018-05-06T04:59:56.219Z,5.70
2018-05-06T05:00:29.711Z,5.10
2018-05-06T05:01:03.189Z,5.80
2018-05-06T05:01:36.672Z,5.30
2018-05-06T05:02:10.144Z,6.10
2018-05-06T05:02:44.379Z,5.00
2018-05-06T05:03:17.861Z,5.60
2018-05-06T05:03:51.328Z,5.80
2018-05-06T05:04:24.802Z,6.30
2018-05-06T05:04:59.042Z,4.77
2018-05-06T05:05:32.506Z,6.07
2018-05-06T05:06:05.987Z,5.90
2018-05-06T05:06:39.478Z,6.77
2018-05-06T05:07:12.634Z,5.63
2018-05-06T05:07:46.855Z,5.80
2018-05-06T05:08:20.359Z,6.40
2018-05-06T05:08:53.819Z,6.13
2018-05-06T05:09:27.348Z,6.47
2018-05-06T05:10:01.731Z,5.90
2018-05-06T05:10:35.197Z,5.80
2018-05-06T05:11:08.701Z,5.97
2018-05-06T05:11:42.167Z,6.20
2018-05-06T05:12:15.656Z,6.43
2018-05-06T05:12:49.126Z,5.80
2018-05-06T05:13:23.468Z,6.30
2018-05-06T05:13:56.945Z,5.37
2018-05-06T05:14:30.417Z,5.83
2018-05-06T05:15:03.578Z,6.27
2018-05-06T05:15:37.841Z,5.40
2018-05-06T05:16:11.300Z,5.90
2018-05-06T05:16:44.771Z,5.73
2018-05-06T05:17:18.234Z,6.67
2018-05-06T05:17:52.473Z,6.40
2018-05-06T05:18:25.971Z,5.80
2018-05-06T05:18:59.427Z,5.97
2018-05-06T05:19:32.914Z,5.27
2018-05-06T05:20:06.389Z,5.57
2018-05-06T05:20:39.625Z,6.13
2018-05-06T05:21:13.095Z,6.00
2018-05-06T05:21:46.762Z,6.30
2018-05-06T05:22:20.231Z,5.30
2018-05-06T05:22:53.730Z,6.00
2018-05-06T05:23:27.257Z,5.63
2018-05-06T05:24:00.787Z,5.80
2018-05-06T05:24:34.243Z,6.60
2018-05-06T05:25:07.700Z,6.47
2018-05-06T05:25:41.193Z,5.27
2018-05-06T05:26:14.664Z,5.37
2018-05-06T05:26:48.135Z,5.20
2018-05-06T05:27:21.609Z,5.23
2018-05-06T05:27:55.085Z,5.50
2018-05-06T05:28:28.588Z,6.13
2018-05-06T05:29:02.054Z,5.30
2018-05-06T05:29:35.551Z,5.70
2018-05-06T05:30:09.025Z,5.93
2018-05-06T05:30:42.509Z,5.47
2018-05-06T05:31:15.989Z,6.60
2018-05-06T05:31:49.458Z,6.10
2018-05-06T05:32:23.692Z,5.80
2018-05-06T05:32:57.165Z,5.73
2018-05-06T05:33:30.651Z,6.17
2018-05-06T05:34:04.139Z,5.57
2018-05-06T05:34:37.615Z,5.50
2018-05-06T05:35:11.102Z,5.93
2018-05-06T05:35:44.573Z,5.97
2018-05-06T05:36:18.916Z,5.60
2018-05-06T05:36:52.389Z,5.27
2018-05-06T05:37:25.865Z,5.10
2018-05-06T05:37:59.329Z,5.40
2018-05-06T05:38:33.581Z,4.73
2018-05-06T05:39:07.057Z,4.90
2018-05-06T05:39:40.523Z,5.37
2018-05-06T05:40:13.988Z,4.60
2018-05-06T05:40:48.227Z,4.57
2018-05-06T05:41:21.721Z,4.83
2018-05-06T05:41:55.215Z,5.57
2018-05-06T05:42:28.693Z,4.80
2018-05-06T05:43:02.163Z,4.97
2018-05-06T05:43:35.684Z,4.60
2018-05-06T05:44:09.155Z,4.20
2018-05-06T05:44:42.643Z,4.63
2018-05-06T05:45:16.105Z,4.13
2018-05-06T05:45:49.345Z,4.37
2018-05-06T05:46:23.585Z,4.20
2018-05-06T05:46:57.059Z,3.97
2018-05-06T05:47:30.547Z,4.43
2018-05-06T05:48:04.015Z,4.30
2018-05-06T05:48:37.631Z,4.30
2018-05-06T05:49:11.107Z,4.27
2018-05-06T05:49:44.595Z,4.20
2018-05-06T05:50:18.075Z,3.90
2018-05-06T05:50:51.541Z,4.57
2018-05-06T05:51:25.022Z,5.43
2018-05-06T05:51:59.283Z,4.53
2018-05-06T05:52:32.810Z,4.57
2018-05-06T05:53:06.281Z,4.20
2018-05-06T05:53:40.546Z,4.30
2018-05-06T05:54:14.033Z,4.47
2018-05-06T05:54:47.506Z,3.67
2018-05-06T05:55:21.042Z,3.80
2018-05-06T05:55:55.311Z,3.10
2018-05-06T05:56:28.789Z,4.00
2018-05-06T05:57:02.274Z,4.30
2018-05-06T05:57:36.529Z,4.10
2018-05-06T05:58:10.777Z,4.17
2018-05-06T05:58:44.275Z,3.93
2018-05-06T05:59:17.753Z,4.50
2018-05-06T05:59:51.245Z,4.77
2018-05-06T06:00:24.707Z,4.40
2018-05-06T06:00:58.165Z,4.10
2018-05-06T06:01:32.468Z,4.17
2018-05-06T06:02:06.058Z,4.50
2018-05-06T06:02:39.533Z,4.27
2018-05-06T06:03:13.036Z,4.30
2018-05-06T06:03:46.539Z,3.97
2018-05-06T06:04:19.985Z,3.93
2018-05-06T06:04:54.214Z,4.50
2018-05-06T06:05:27.679Z,4.03
2018-05-06T06:06:01.909Z,3.90
2018-05-06T06:06:35.387Z,4.07
2018-05-06T06:07:08.870Z,3.63
2018-05-06T06:07:42.089Z,3.80
2018-05-06T06:08:15.357Z,3.40
2018-05-06T06:08:48.863Z,3.43
2018-05-06T06:09:22.341Z,3.97
2018-05-06T06:09:55.481Z,3.80
2018-05-06T06:10:28.937Z,3.73
2018-05-06T06:11:03.189Z,4.70
2018-05-06T06:11:36.647Z,3.50
2018-05-06T06:12:10.109Z,3.73
2018-05-06T06:12:44.356Z,3.80
2018-05-06T06:13:17.847Z,3.80
2018-05-06T06:13:51.375Z,4.00
2018-05-06T06:14:25.611Z,3.67
2018-05-06T06:14:59.081Z,3.30
2018-05-06T06:15:33.413Z,3.80
2018-05-06T06:16:06.973Z,3.93
2018-05-06T06:16:41.213Z,4.00
2018-05-06T06:17:14.679Z,3.77
2018-05-06T06:17:48.146Z,3.50
2018-05-06T06:18:22.379Z,3.53
2018-05-06T06:18:55.859Z,4.00
2018-05-06T06:19:29.357Z,3.77
2018-05-06T06:20:02.844Z,3.20
2018-05-06T06:20:36.335Z,3.77
2018-05-06T06:21:09.813Z,3.83
2018-05-06T06:21:43.281Z,4.00
2018-05-06T06:22:16.759Z,3.93
2018-05-06T06:22:50.241Z,3.60
2018-05-06T06:23:23.730Z,3.80
2018-05-06T06:23:57.213Z,3.83
2018-05-06T06:24:30.714Z,4.23
2018-05-06T06:25:04.031Z,3.60
2018-05-06T06:25:37.526Z,4.10
2018-05-06T06:26:11.064Z,3.53
2018-05-06T06:26:44.659Z,3.20
2018-05-06T06:27:18.146Z,3.37
2018-05-06T06:27:51.606Z,4.13
2018-05-06T06:28:25.077Z,3.80
2018-05-06T06:28:59.342Z,3.60
2018-05-06T06:29:32.848Z,4.50
2018-05-06T06:30:07.105Z,3.80
2018-05-06T06:30:40.615Z,3.60
2018-05-06T06:31:14.071Z,3.60
2018-05-06T06:31:47.214Z,3.90
2018-05-06T06:32:21.431Z,3.40
2018-05-06T06:32:54.910Z,3.20
2018-05-06T06:33:29.103Z,3.17
2018-05-06T06:34:03.372Z,3.87
2018-05-06T06:34:36.851Z,3.63
2018-05-06T06:35:10.357Z,3.43
2018-05-06T06:35:43.820Z,3.87
2018-05-06T06:36:17.286Z,3.50
2018-05-06T06:36:50.771Z,3.10
2018-05-06T06:37:24.231Z,3.80
2018-05-06T06:37:57.734Z,3.20
2018-05-06T06:38:31.222Z,3.57
2018-05-06T06:39:04.457Z,3.73
2018-05-06T06:39:38.720Z,3.30
2018-05-06T06:40:12.212Z,3.03
2018-05-06T06:40:45.685Z,3.13
2018-05-06T06:41:19.157Z,3.27
2018-05-06T06:41:52.646Z,3.40
2018-05-06T06:42:26.115Z,3.80
2018-05-06T06:42:59.609Z,2.90
2018-05-06T06:43:33.200Z,2.80
2018-05-06T06:44:06.694Z,3.30
2018-05-06T06:44:40.202Z,3.87
2018-05-06T06:45:15.180Z,3.90
2018-05-06T06:45:48.675Z,4.03
2018-05-06T06:46:21.807Z,3.30
2018-05-06T06:46:56.037Z,3.40
2018-05-06T06:47:29.499Z,3.10
2018-05-06T06:48:03.729Z,3.30
2018-05-06T06:48:37.227Z,3.20
2018-05-06T06:49:10.726Z,3.23
2018-05-06T06:49:44.207Z,2.83
2018-05-06T06:50:17.665Z,2.77
2018-05-06T06:50:51.116Z,2.80
2018-05-06T06:51:25.380Z,3.10
2018-05-06T06:51:58.855Z,2.00
2018-05-06T06:52:32.321Z,2.30
2018-05-06T06:53:05.779Z,2.30
2018-05-06T06:53:40.020Z,2.40
2018-05-06T06:54:13.527Z,2.53
2018-05-06T06:54:46.998Z,2.57
2018-05-06T06:55:20.571Z,2.53
2018-05-06T06:55:53.846Z,2.30
2018-05-06T06:56:27.091Z,2.70
2018-05-06T06:57:01.109Z,2.50
2018-05-06T06:57:35.337Z,2.07
2018-05-06T06:58:08.574Z,2.43
2018-05-06T06:58:42.823Z,2.20
2018-05-06T06:59:16.336Z,2.40
2018-05-06T06:59:49.823Z,2.03
2018-05-06T07:00:23.383Z,2.07
2018-05-06T07:00:56.863Z,2.37
2018-05-06T07:01:30.341Z,2.73
2018-05-06T07:02:03.806Z,2.33
2018-05-06T07:02:38.039Z,2.33
2018-05-06T07:03:11.508Z,1.80
2018-05-06T07:03:44.980Z,2.20
2018-05-06T07:04:18.496Z,2.00
2018-05-06T07:04:51.973Z,1.60
2018-05-06T07:05:25.434Z,1.77
2018-05-06T07:05:59.727Z,1.97
2018-05-06T07:06:33.353Z,1.90
2018-05-06T07:07:06.889Z,1.90
2018-05-06T07:07:40.358Z,2.10
2018-05-06T07:08:13.829Z,1.93
2018-05-06T07:08:47.293Z,1.70
2018-05-06T07:09:20.786Z,1.70
2018-05-06T07:09:54.257Z,1.90
2018-05-06T07:10:27.767Z,1.53
2018-05-06T07:11:02.161Z,1.63
2018-05-06T07:11:35.409Z,1.67
2018-05-06T07:12:09.467Z,2.20
2018-05-06T07:12:42.941Z,2.00
2018-05-06T07:13:16.407Z,2.50
2018-05-06T07:13:49.886Z,2.17
2018-05-06T07:14:23.360Z,1.77
2018-05-06T07:14:56.493Z,2.13
2018-05-06T07:15:29.950Z,2.07
2018-05-06T07:16:03.464Z,1.63
2018-05-06T07:16:37.727Z,1.90
2018-05-06T07:17:11.209Z,1.63
2018-05-06T07:17:44.713Z,1.60
2018-05-06T07:18:18.195Z,1.90
2018-05-06T07:18:53.733Z,1.60
2018-05-06T07:19:29.769Z,1.60
2018-05-06T07:20:03.237Z,1.53
2018-05-06T07:20:37.137Z,1.50
2018-05-06T07:21:10.283Z,1.87
2018-05-06T07:21:44.720Z,1.87
2018-05-06T07:22:18.201Z,1.40
2018-05-06T07:22:51.687Z,1.40
2018-05-06T07:23:25.169Z,1.50
2018-05-06T07:23:58.752Z,2.20
2018-05-06T07:24:33.043Z,2.37